Time;durP1;ratioP1;P1;durP2;ratioP2;P2;SDS_P1;SDS_P2;PMS_P1;PMS_P2;Temp;Humidity;BMP_temperature;BMP_pressure;BME280_temperature;BME280_humidity;BME280_pressure;Samples;Min_cycle;Max_cycle;Signal;HPM_P1;HPM_P2
2020/12/20 00:00:26;;;;;;;5.30;4.80;;;;;;;11.29;100.00;100376.41;5099656;28;20281;-34
2020/12/20 00:03:12;;;;;;;7.07;5.83;;;;;;;11.28;100.00;100371.22;5099094;28;20195;-37
2020/12/20 00:05:58;;;;;;;7.40;5.47;;;;;;;11.46;100.00;100359.81;5099660;28;20643;-35
2020/12/20 00:08:46;;;;;;;7.43;5.97;;;;;;;11.36;100.00;100359.06;5099021;28;20203;-36
2020/12/20 00:11:37;;;;;;;9.17;5.80;;;;;;;11.11;100.00;100355.00;5099325;28;20211;-34
2020/12/20 00:14:27;;;;;;;9.27;5.80;;;;;;;11.19;100.00;100369.56;5099265;28;20325;-35
2020/12/20 00:17:14;;;;;;;6.47;5.87;;;;;;;11.18;100.00;100360.13;5099436;28;20261;-35
2020/12/20 00:19:59;;;;;;;6.50;5.80;;;;;;;11.09;100.00;100354.16;5099512;28;20624;-33
2020/12/20 00:22:46;;;;;;;8.47;6.33;;;;;;;10.98;100.00;100360.31;5098995;28;20650;-33
2020/12/20 00:25:35;;;;;;;6.70;5.73;;;;;;;10.89;100.00;100346.56;5099157;28;20199;-34
2020/12/20 00:28:24;;;;;;;8.57;6.20;;;;;;;10.77;100.00;100344.94;5099047;28;20222;-35
2020/12/20 00:31:11;;;;;;;8.40;6.47;;;;;;;10.86;100.00;100351.75;5099316;28;20191;-38
2020/12/20 00:33:57;;;;;;;7.03;6.33;;;;;;;10.80;100.00;100349.22;5099211;28;20191;-34
2020/12/20 00:36:45;;;;;;;10.10;8.73;;;;;;;10.69;100.00;100357.06;5099170;28;20604;-36
2020/12/20 00:39:32;;;;;;;8.33;6.97;;;;;;;10.68;100.00;100360.53;5098595;28;20296;-38
2020/12/20 00:42:19;;;;;;;7.70;6.50;;;;;;;10.64;100.00;100366.59;5098938;28;20252;-34
2020/12/20 00:45:05;;;;;;;7.70;6.90;;;;;;;10.65;100.00;100369.16;5098706;28;20198;-34
2020/12/20 00:47:52;;;;;;;8.13;6.83;;;;;;;10.76;100.00;100363.06;5099050;28;20253;-34
2020/12/20 00:50:39;;;;;;;7.47;6.77;;;;;;;10.62;100.00;100368.31;5098990;28;20211;-33
2020/12/20 00:53:25;;;;;;;7.60;6.50;;;;;;;10.59;100.00;100364.03;5098795;28;20203;-38
2020/12/20 00:56:14;;;;;;;8.17;6.80;;;;;;;10.66;100.00;100365.72;5099021;28;20203;-35
2020/12/20 00:59:00;;;;;;;9.00;8.07;;;;;;;10.38;100.00;100361.63;5098677;28;20299;-36
2020/12/20 01:01:47;;;;;;;9.20;7.27;;;;;;;10.31;100.00;100365.09;5098605;28;20353;-33
2020/12/20 01:04:33;;;;;;;8.57;7.67;;;;;;;10.45;100.00;100367.59;5098796;28;20195;-35
2020/12/20 01:07:20;;;;;;;12.10;7.00;;;;;;;10.42;100.00;100365.88;5098438;28;20479;-38
2020/12/20 01:10:06;;;;;;;9.97;6.70;;;;;;;10.42;100.00;100368.47;5098344;28;20214;-38
2020/12/20 01:12:53;;;;;;;9.10;7.23;;;;;;;10.44;100.00;100373.63;5098096;28;20204;-33
2020/12/20 01:15:39;;;;;;;9.70;6.93;;;;;;;10.51;100.00;100371.00;5098607;28;20667;-33
2020/12/20 01:18:25;;;;;;;7.63;6.73;;;;;;;10.29;100.00;100380.63;5098419;28;20257;-37
2020/12/20 01:21:12;;;;;;;6.97;6.27;;;;;;;10.43;100.00;100380.53;5098381;28;20230;-37
2020/12/20 01:23:58;;;;;;;7.37;6.50;;;;;;;10.29;100.00;100380.63;5098068;28;20269;-34
2020/12/20 01:26:44;;;;;;;7.23;6.33;;;;;;;10.45;100.00;100371.03;5097932;28;20608;-35
2020/12/20 01:29:30;;;;;;;7.70;5.97;;;;;;;10.27;100.00;100372.00;5098207;28;20195;-38
2020/12/20 01:32:17;;;;;;;7.67;6.43;;;;;;;10.35;100.00;100370.25;5097514;28;20551;-33
2020/12/20 01:35:04;;;;;;;6.77;6.17;;;;;;;10.27;100.00;100360.81;5097916;28;20199;-37
2020/12/20 01:37:51;;;;;;;11.77;6.93;;;;;;;10.24;100.00;100373.75;5097814;28;20194;-36
2020/12/20 01:40:38;;;;;;;8.03;6.30;;;;;;;10.37;100.00;100371.97;5097590;28;20512;-38
2020/12/20 01:43:24;;;;;;;8.10;6.47;;;;;;;10.38;100.00;100360.75;5097773;28;20204;-36
2020/12/20 01:46:12;;;;;;;6.90;5.83;;;;;;;10.27;100.00;100369.44;5097774;28;20199;-33
2020/12/20 01:48:58;;;;;;;7.40;6.63;;;;;;;10.39;100.00;100365.94;5097967;28;20192;-36
2020/12/20 01:51:46;;;;;;;6.90;6.10;;;;;;;10.30;100.00;100366.81;5097474;28;20199;-33
2020/12/20 01:54:33;;;;;;;9.87;6.53;;;;;;;10.28;100.00;100365.13;5097658;28;20199;-35
2020/12/20 01:57:19;;;;;;;9.53;6.70;;;;;;;10.05;100.00;100361.75;5097476;28;20232;-35
2020/12/20 02:00:06;;;;;;;8.90;7.30;;;;;;;10.08;100.00;100361.75;5097248;28;20217;-35
2020/12/20 02:02:53;;;;;;;7.93;6.90;;;;;;;9.99;100.00;100362.66;5097703;28;20206;-35
2020/12/20 02:05:39;;;;;;;8.80;6.40;;;;;;;9.97;100.00;100356.66;5097443;28;20225;-34
2020/12/20 02:08:26;;;;;;;9.60;6.40;;;;;;;10.02;100.00;100354.88;5097658;28;20581;-36
2020/12/20 02:11:15;;;;;;;8.53;7.33;;;;;;;10.02;100.00;100353.16;5097355;28;20199;-38
2020/12/20 02:14:01;;;;;;;8.13;7.10;;;;;;;10.05;100.00;100351.41;5097511;28;20199;-36
2020/12/20 02:16:48;;;;;;;9.40;6.33;;;;;;;10.05;100.00;100354.88;5097508;28;20191;-33
2020/12/20 02:19:34;;;;;;;7.63;6.90;;;;;;;10.15;100.00;100346.22;5097417;28;20731;-38
2020/12/20 02:22:22;;;;;;;8.23;6.20;;;;;;;10.26;100.00;100357.38;5096880;28;20249;-36
2020/12/20 02:25:08;;;;;;;8.27;6.33;;;;;;;10.13;100.00;100341.91;5096840;28;20605;-35
2020/12/20 02:27:54;;;;;;;8.00;6.00;;;;;;;10.15;100.00;100350.53;5096850;28;20549;-37
2020/12/20 02:30:41;;;;;;;10.13;6.60;;;;;;;10.29;100.00;100340.97;5096464;28;20195;-39
2020/12/20 02:33:27;;;;;;;7.47;6.50;;;;;;;10.15;100.00;100350.53;5096339;28;20304;-34
2020/12/20 02:36:14;;;;;;;7.20;6.50;;;;;;;10.30;100.00;100350.47;5096203;28;20534;-34
2020/12/20 02:39:01;;;;;;;7.17;6.47;;;;;;;10.22;100.00;100347.03;5096871;28;20648;-36
2020/12/20 02:41:47;;;;;;;7.30;6.60;;;;;;;10.14;100.00;100343.63;5096652;28;20236;-37
2020/12/20 02:44:34;;;;;;;7.67;6.33;;;;;;;10.17;100.00;100335.88;5099114;28;20198;-34
2020/12/20 02:47:20;;;;;;;7.00;6.23;;;;;;;10.04;100.00;100337.63;5101030;28;20195;-33
2020/12/20 02:50:06;;;;;;;7.77;6.17;;;;;;;9.94;100.00;100342.00;5101288;28;20248;-35
2020/12/20 02:52:52;;;;;;;6.40;5.73;;;;;;;9.75;100.00;100348.13;5101300;28;20481;-33
2020/12/20 02:55:40;;;;;;;7.30;6.60;;;;;;;9.74;100.00;100349.00;5101151;28;20207;-35
2020/12/20 02:58:26;;;;;;;7.00;6.30;;;;;;;9.71;100.00;100361.06;5100311;28;20380;-35
2020/12/20 03:01:12;;;;;;;7.80;6.93;;;;;;;9.66;100.00;100354.19;5099916;28;20231;-33
2020/12/20 03:03:58;;;;;;;9.93;6.83;;;;;;;9.56;100.00;100352.50;5100468;28;20203;-33
2020/12/20 03:06:44;;;;;;;8.40;6.70;;;;;;;9.59;100.00;100347.31;5100554;28;20236;-36
2020/12/20 03:09:30;;;;;;;9.23;7.97;;;;;;;9.57;100.00;100355.94;5100940;28;20197;-38
2020/12/20 03:12:18;;;;;;;11.73;7.03;;;;;;;9.62;100.00;100355.03;5101110;28;20281;-35
2020/12/20 03:15:04;;;;;;;11.93;7.47;;;;;;;9.61;100.00;100348.16;5100981;28;20199;-35
2020/12/20 03:17:51;;;;;;;10.33;7.63;;;;;;;9.63;100.00;100354.19;5100498;28;20211;-34
2020/12/20 03:20:37;;;;;;;10.77;7.27;;;;;;;9.64;100.00;100347.28;5100407;28;20219;-37
2020/12/20 03:23:23;;;;;;;9.70;7.17;;;;;;;9.71;100.00;100350.72;5100385;28;20650;-36
2020/12/20 03:26:09;;;;;;;9.37;7.20;;;;;;;9.59;100.00;100354.22;5100001;28;20199;-35
2020/12/20 03:28:57;;;;;;;9.73;8.07;;;;;;;9.53;100.00;100342.19;5100648;28;20256;-33
2020/12/20 03:31:43;;;;;;;8.33;7.23;;;;;;;9.41;100.00;100337.03;5100421;28;20586;-35
2020/12/20 03:34:29;;;;;;;8.93;7.50;;;;;;;9.47;100.00;100337.03;5100415;28;20476;-36
2020/12/20 03:37:15;;;;;;;10.57;8.40;;;;;;;9.46;100.00;100343.06;5098340;28;20543;-35
2020/12/20 03:40:03;;;;;;;9.63;7.43;;;;;;;9.47;100.00;100336.16;5080864;28;20246;-37
2020/12/20 03:42:50;;;;;;;9.53;7.07;;;;;;;9.54;100.00;100332.72;5080286;28;20204;-35
2020/12/20 03:45:37;;;;;;;9.50;6.93;;;;;;;9.47;100.00;100337.03;5079499;28;20330;-36
2020/12/20 03:48:23;;;;;;;9.00;7.40;;;;;;;9.56;100.00;100333.56;5079446;28;20688;-33
2020/12/20 03:51:23;;;;;;;8.43;7.53;;;;;;;9.59;100.00;100330.97;5079219;28;20203;-34
2020/12/20 03:54:09;;;;;;;8.27;7.47;;;;;;;9.59;100.00;100333.56;5079773;28;20264;-35
2020/12/20 03:56:56;;;;;;;8.63;7.27;;;;;;;9.66;100.00;100341.25;5078811;28;20204;-32
2020/12/20 03:59:45;;;;;;;8.77;7.37;;;;;;;9.63;100.00;100341.25;5079464;28;20590;-32
2020/12/20 04:02:32;;;;;;;11.00;8.33;;;;;;;9.67;100.00;100340.41;5079512;28;20259;-33
2020/12/20 04:05:18;;;;;;;11.23;7.70;;;;;;;9.72;100.00;100342.97;5079266;28;20204;-35
2020/12/20 04:08:04;;;;;;;9.93;7.90;;;;;;;9.61;100.00;100347.28;5078460;28;20261;-32
2020/12/20 04:10:50;;;;;;;8.80;7.50;;;;;;;9.70;100.00;100352.44;5079376;28;20194;-31
2020/12/20 04:13:38;;;;;;;9.73;8.00;;;;;;;9.72;100.00;100342.97;5079056;28;20196;-34
2020/12/20 04:16:24;;;;;;;7.30;6.60;;;;;;;9.66;100.00;100353.31;5078827;28;20294;-33
2020/12/20 04:19:11;;;;;;;9.23;7.20;;;;;;;9.74;100.00;100349.00;5079307;28;20254;-36
2020/12/20 04:21:57;;;;;;;10.03;7.00;;;;;;;9.75;100.00;100345.53;5079122;28;20560;-36
2020/12/20 04:24:43;;;;;;;7.40;6.80;;;;;;;9.78;100.00;100342.97;5079305;28;20242;-34
2020/12/20 04:27:30;;;;;;;7.83;7.10;;;;;;;9.83;100.00;100348.06;5079219;28;20259;-32
2020/12/20 04:30:16;;;;;;;8.47;6.70;;;;;;;9.94;100.00;100361.81;5078776;28;20192;-36
2020/12/20 04:33:03;;;;;;;10.60;7.00;;;;;;;9.75;100.00;100355.03;5078682;28;20208;-33
2020/12/20 04:35:51;;;;;;;10.33;7.57;;;;;;;9.80;100.00;100356.69;5078639;28;20663;-35
2020/12/20 04:38:37;;;;;;;11.80;7.40;;;;;;;9.99;100.00;100352.34;5078563;28;20509;-35
2020/12/20 04:41:25;;;;;;;9.80;7.83;;;;;;;9.75;100.00;100358.47;5078879;28;20239;-34
2020/12/20 04:44:11;;;;;;;10.13;7.57;;;;;;;9.73;100.00;100354.16;5078778;28;20368;-34
2020/12/20 04:46:58;;;;;;;8.73;7.37;;;;;;;9.80;100.00;100350.66;5078897;28;20659;-35
2020/12/20 04:49:45;;;;;;;9.17;7.00;;;;;;;9.81;100.00;100348.06;5078492;28;20355;-37
2020/12/20 04:52:34;;;;;;;12.57;7.77;;;;;;;9.75;100.00;100347.28;5078580;28;20705;-35
2020/12/20 04:55:22;;;;;;;8.10;7.30;;;;;;;9.81;100.00;100350.66;5078807;28;20258;-32
2020/12/20 04:58:08;;;;;;;8.70;7.73;;;;;;;9.79;100.00;100343.81;5078416;28;20199;-36
2020/12/20 05:00:54;;;;;;;9.83;7.27;;;;;;;9.59;100.00;100341.31;5076927;28;20258;-35
2020/12/20 05:03:41;;;;;;;9.17;7.93;;;;;;;9.62;100.00;100346.44;5078225;28;20215;-34
2020/12/20 05:06:28;;;;;;;7.63;6.73;;;;;;;9.64;100.00;100349.88;5078432;28;20593;-32
2020/12/20 05:09:15;;;;;;;8.27;7.17;;;;;;;9.81;100.00;100349.81;5077986;28;20216;-34
2020/12/20 05:12:02;;;;;;;9.37;8.27;;;;;;;9.65;100.00;100355.03;5078191;28;20192;-36
2020/12/20 05:14:48;;;;;;;8.03;7.20;;;;;;;9.63;100.00;100367.09;5078412;28;20502;-33
2020/12/20 05:17:34;;;;;;;7.67;6.97;;;;;;;9.79;100.00;100362.72;5077566;28;20295;-34
2020/12/20 05:20:36;;;;;;;10.13;7.80;;;;;;;9.64;100.00;100357.63;5077806;28;20475;-34
2020/12/20 05:23:22;;;;;;;9.27;7.73;;;;;;;9.65;100.00;100361.94;5078138;28;20193;-33
2020/12/20 05:26:09;;;;;;;10.57;8.13;;;;;;;9.60;100.00;100363.66;5077739;28;20195;-32
2020/12/20 05:29:07;;;;;;;9.77;8.40;;;;;;;9.63;100.00;100361.94;5077884;28;20719;-32
2020/12/20 05:31:53;;;;;;;11.50;8.10;;;;;;;9.58;100.00;100361.09;5077551;28;20503;-34
2020/12/20 05:34:39;;;;;;;8.53;7.60;;;;;;;9.74;100.00;100355.88;5077494;28;20219;-36
2020/12/20 05:37:28;;;;;;;7.90;7.10;;;;;;;9.79;100.00;100359.31;5077415;28;20206;-32
2020/12/20 05:40:24;;;;;;;11.87;7.30;;;;;;;9.81;100.00;100360.13;5077175;28;20670;-35
2020/12/20 05:43:14;;;;;;;8.50;7.47;;;;;;;9.73;100.00;100355.03;5077809;28;20632;-34
2020/12/20 05:46:01;;;;;;;8.53;7.73;;;;;;;9.87;100.00;100363.56;5077637;28;20199;-35
2020/12/20 05:48:47;;;;;;;10.20;7.30;;;;;;;9.80;100.00;100361.00;5077643;28;20541;-35
2020/12/20 05:51:33;;;;;;;13.07;8.43;;;;;;;9.84;100.00;100358.41;5077511;28;20192;-32
2020/12/20 05:54:20;;;;;;;9.07;7.50;;;;;;;9.77;100.00;100361.03;5077456;28;20200;-33
2020/12/20 05:57:11;;;;;;;8.13;7.33;;;;;;;9.81;100.00;100357.56;5077665;28;20586;-33
2020/12/20 05:59:58;;;;;;;9.13;6.90;;;;;;;9.76;100.00;100359.31;5076873;28;20303;-35
2020/12/20 06:02:45;;;;;;;8.87;8.00;;;;;;;9.83;100.00;100361.84;5076997;28;20199;-34
2020/12/20 06:05:35;;;;;;;10.50;7.87;;;;;;;9.75;100.00;100366.22;5077115;28;20240;-36
2020/12/20 06:08:22;;;;;;;9.73;7.53;;;;;;;9.67;100.00;100366.22;5077001;28;20258;-34
2020/12/20 06:11:14;;;;;;;7.77;6.90;;;;;;;9.80;100.00;100363.59;5077386;28;20195;-34
2020/12/20 06:14:02;;;;;;;9.87;7.50;;;;;;;9.80;100.00;100355.84;5077457;28;20278;-34
2020/12/20 06:17:03;;;;;;;8.57;7.67;;;;;;;9.91;100.00;100362.69;5077480;28;20199;-33
2020/12/20 06:19:55;;;;;;;8.53;7.70;;;;;;;9.93;100.00;100365.28;5076829;28;20257;-33
2020/12/20 06:22:46;;;;;;;9.17;6.77;;;;;;;9.92;100.00;100369.59;5076794;28;20223;-32
2020/12/20 06:25:43;;;;;;;8.80;7.83;;;;;;;9.98;100.00;100356.63;5077103;28;20455;-35
2020/12/20 06:28:30;;;;;;;9.07;7.27;;;;;;;9.87;100.00;100355.81;5076854;28;20247;-32
2020/12/20 06:31:19;;;;;;;8.50;7.70;;;;;;;9.83;100.00;100361.84;5077389;28;20537;-34
2020/12/20 06:34:14;;;;;;;9.00;8.10;;;;;;;9.84;100.00;100365.28;5076979;28;20203;-36
2020/12/20 06:37:01;;;;;;;11.20;8.40;;;;;;;9.72;100.00;100373.97;5077186;28;20475;-33
2020/12/20 06:39:48;;;;;;;10.43;8.40;;;;;;;9.67;100.00;100371.41;5076198;28;20336;-35
2020/12/20 06:42:39;;;;;;;8.17;7.37;;;;;;;9.79;100.00;100375.66;5076718;28;20342;-36
2020/12/20 06:45:27;;;;;;;10.43;8.63;;;;;;;9.82;100.00;100375.63;5077029;28;20605;-37
2020/12/20 06:48:14;;;;;;;9.30;8.27;;;;;;;9.82;100.00;100373.06;5076944;28;20491;-35
2020/12/20 06:51:03;;;;;;;8.90;8.00;;;;;;;9.83;100.00;100376.50;5076226;28;20274;-38
2020/12/20 06:53:54;;;;;;;10.00;9.00;;;;;;;9.82;100.00;100372.19;5076545;28;20613;-35
2020/12/20 06:56:42;;;;;;;10.00;9.00;;;;;;;9.89;100.00;100377.34;5076403;28;20219;-34
2020/12/20 06:59:44;;;;;;;9.77;8.77;;;;;;;9.76;100.00;100386.00;5076720;28;20297;-33
2020/12/20 07:02:44;;;;;;;9.63;8.17;;;;;;;9.76;100.00;100385.16;5076660;28;20645;-34
2020/12/20 07:05:35;;;;;;;10.87;9.13;;;;;;;9.78;100.00;100381.72;5076580;28;20199;-35
2020/12/20 07:08:25;;;;;;;10.13;8.50;;;;;;;9.71;100.00;100392.91;5076577;28;20204;-35
2020/12/20 07:11:22;;;;;;;9.80;8.80;;;;;;;9.71;100.00;100387.75;5075564;28;20192;-36
2020/12/20 07:14:18;;;;;;;11.67;9.50;;;;;;;9.70;100.00;100388.59;5075912;28;20310;-36
2020/12/20 07:17:24;;;;;;;10.57;8.63;;;;;;;9.83;100.00;100398.03;5076030;28;20196;-34
2020/12/20 07:20:11;;;;;;;11.20;8.73;;;;;;;9.75;100.00;100397.22;5076038;28;20616;-33
2020/12/20 07:22:57;;;;;;;10.73;8.67;;;;;;;9.68;100.00;100392.91;5067409;28;20598;-37
2020/12/20 07:25:47;;;;;;;10.27;9.27;;;;;;;9.80;100.00;100392.00;5076188;28;20291;-34
2020/12/20 07:28:32;;;;;;;9.13;8.20;;;;;;;9.60;100.00;100392.06;5075586;28;20239;-35
2020/12/20 07:31:21;;;;;;;9.93;8.30;;;;;;;9.68;100.00;100396.34;5077232;28;20250;-32
2020/12/20 07:34:08;;;;;;;10.37;8.70;;;;;;;9.67;100.00;100402.38;5080031;28;20606;-36
2020/12/20 07:36:55;;;;;;;13.67;9.73;;;;;;;9.78;100.00;100399.78;5079682;28;20354;-33
2020/12/20 07:39:46;;;;;;;11.20;9.80;;;;;;;9.83;100.00;100397.16;5079180;28;20228;-37
2020/12/20 07:42:33;;;;;;;10.63;9.33;;;;;;;9.65;100.00;100405.84;5079219;28;20294;-35
2020/12/20 07:45:19;;;;;;;10.17;8.63;;;;;;;9.56;100.00;100404.16;5079573;28;20198;-36
2020/12/20 07:48:06;;;;;;;10.80;9.43;;;;;;;9.62;100.00;100409.28;5079033;28;20256;-35
2020/12/20 07:50:52;;;;;;;11.43;9.37;;;;;;;9.59;100.00;100409.28;5079231;28;20350;-36
2020/12/20 07:53:50;;;;;;;11.50;9.57;;;;;;;9.76;100.00;100409.25;5078505;28;20196;-34
2020/12/20 07:56:38;;;;;;;12.33;9.00;;;;;;;9.63;100.00;100407.56;5079541;28;20594;-36
2020/12/20 07:59:25;;;;;;;11.60;9.60;;;;;;;9.68;100.00;100403.25;5078770;28;20195;-33
2020/12/20 08:02:20;;;;;;;11.60;9.83;;;;;;;9.76;100.00;100408.41;5078724;28;20235;-35
2020/12/20 08:05:06;;;;;;;11.23;9.77;;;;;;;9.70;100.00;100409.28;5078774;28;20196;-33
2020/12/20 08:07:54;;;;;;;11.53;10.27;;;;;;;9.86;100.00;100405.78;5078266;28;20196;-39
2020/12/20 08:10:40;;;;;;;12.63;11.27;;;;;;;9.78;100.00;100407.53;5079102;28;20232;-39
2020/12/20 08:13:26;;;;;;;11.30;10.20;;;;;;;10.05;100.00;100408.28;5078760;28;20249;-32
2020/12/20 08:16:22;;;;;;;12.43;11.13;;;;;;;10.14;100.00;100414.28;5078489;28;20248;-36
2020/12/20 08:19:09;;;;;;;14.33;12.87;;;;;;;10.22;100.00;100416.84;5078314;28;20533;-37
2020/12/20 08:22:06;;;;;;;11.80;10.40;;;;;;;10.25;100.00;100419.44;5508702;22;20269;31
2020/12/20 08:24:53;;;;;;;12.20;11.00;;;;;;;10.29;100.00;100422.00;5021224;28;20692;-29
2020/12/20 08:27:42;;;;;;;11.37;10.27;;;;;;;10.41;100.00;100415.88;5024590;28;20280;-29
2020/12/20 08:30:29;;;;;;;11.57;10.00;;;;;;;10.47;100.00;100421.03;5022901;28;20198;-31
2020/12/20 08:33:32;;;;;;;12.03;10.83;;;;;;;10.50;100.00;100417.56;5023889;28;20193;-29
2020/12/20 08:36:21;;;;;;;10.87;9.77;;;;;;;10.40;100.00;100421.91;5022565;28;20249;-29
2020/12/20 08:39:09;;;;;;;11.27;10.17;;;;;;;10.38;100.00;100421.09;5021207;28;20202;-29
2020/12/20 08:42:03;;;;;;;12.80;10.43;;;;;;;10.52;100.00;100424.47;5022517;28;20288;-29
2020/12/20 08:44:49;;;;;;;11.90;10.70;;;;;;;10.48;100.00;100440.84;5023505;28;20216;-29
2020/12/20 08:47:36;;;;;;;13.10;9.83;;;;;;;10.73;100.00;100444.16;5021680;28;20261;-29
2020/12/20 08:50:25;;;;;;;11.37;9.87;;;;;;;10.48;100.00;100445.16;5021912;28;20201;-29
2020/12/20 08:53:12;;;;;;;9.93;8.93;;;;;;;10.64;100.00;100450.25;5021861;28;20273;-29
2020/12/20 08:56:08;;;;;;;13.17;10.87;;;;;;;10.83;100.00;100447.53;5022724;28;20297;-29
2020/12/20 08:58:59;;;;;;;11.20;9.17;;;;;;;10.43;100.00;100449.50;5021396;28;20201;-30
2020/12/20 09:01:46;;;;;;;10.67;8.97;;;;;;;10.64;100.00;100458.00;5017747;28;20296;-29
2020/12/20 09:04:33;;;;;;;10.37;8.70;;;;;;;10.55;100.00;100457.22;5001674;28;20257;-30
2020/12/20 09:07:33;;;;;;;9.87;8.87;;;;;;;10.69;100.00;100471.78;5004428;28;20527;-31
2020/12/20 09:10:24;;;;;;;11.03;9.90;;;;;;;10.72;100.00;100464.88;5020611;28;20356;-30
2020/12/20 09:13:10;;;;;;;12.50;10.67;;;;;;;10.79;100.00;100471.75;5020465;28;20206;-30
2020/12/20 09:15:57;;;;;;;11.03;9.93;;;;;;;11.35;100.00;100464.41;5022084;28;20639;-30
2020/12/20 09:18:42;;;;;;;10.40;9.30;;;;;;;11.06;100.00;100471.53;5023102;28;20261;-30
2020/12/20 09:21:29;;;;;;;10.60;9.53;;;;;;;11.01;100.00;100474.16;5024234;28;20273;-30
2020/12/20 09:24:16;;;;;;;10.80;9.20;;;;;;;10.80;100.00;100471.69;5039872;28;20312;-30
2020/12/20 09:27:04;;;;;;;11.50;8.93;;;;;;;10.95;100.00;100486.28;5043428;28;20198;-30
2020/12/20 09:29:53;;;;;;;9.73;8.73;;;;;;;11.19;100.00;100477.50;5041478;28;20205;-30
2020/12/20 09:32:39;;;;;;;9.80;8.90;;;;;;;10.98;100.00;100486.28;5041202;28;20224;-30
2020/12/20 09:35:32;;;;;;;10.77;9.40;;;;;;;11.14;100.00;100481.84;5040899;28;20233;-30
2020/12/20 09:38:21;;;;;;;10.07;8.93;;;;;;;10.83;100.00;100481.19;5040653;28;20218;-29
2020/12/20 09:41:10;;;;;;;10.60;9.57;;;;;;;11.10;100.00;100488.78;5039955;28;20276;-30
2020/12/20 09:43:58;;;;;;;12.57;9.80;;;;;;;11.39;100.00;100478.16;5040519;28;20245;-31
2020/12/20 09:46:44;;;;;;;10.53;9.40;;;;;;;10.99;100.00;100482.81;5039952;28;20271;-30
2020/12/20 09:49:30;;;;;;;9.67;8.67;;;;;;;11.08;100.00;100484.47;5040122;28;20196;-30
2020/12/20 09:52:16;;;;;;;11.27;9.27;;;;;;;11.32;100.00;100481.69;5039633;28;20204;-30
2020/12/20 09:55:19;;;;;;;10.23;9.13;;;;;;;11.52;100.00;100491.88;5039130;28;20205;-30
2020/12/20 09:58:07;;;;;;;10.57;9.30;;;;;;;11.23;100.00;100499.88;5040931;28;20201;-30
2020/12/20 10:01:01;;;;;;;10.87;9.40;;;;;;;11.33;100.00;100489.47;5039364;28;20209;-30
2020/12/20 10:03:52;;;;;;;12.47;10.03;;;;;;;11.34;100.00;100498.94;5039781;28;20201;-30
2020/12/20 10:06:39;;;;;;;12.73;11.43;;;;;;;11.52;100.00;100484.13;5040548;28;20209;-30
2020/12/20 10:09:25;;;;;;;11.13;9.73;;;;;;;11.89;100.00;100490.69;5039797;28;20493;-30
2020/12/20 10:12:11;;;;;;;9.83;8.93;;;;;;;12.37;100.00;100488.44;5040181;28;20193;-30
2020/12/20 10:14:59;;;;;;;8.80;7.97;;;;;;;13.03;100.00;100490.97;5039908;28;20296;-30
2020/12/20 10:17:45;;;;;;;8.63;7.57;;;;;;;12.84;100.00;100489.50;5040603;28;20574;-31
2020/12/20 10:20:32;;;;;;;8.03;7.33;;;;;;;12.96;100.00;100486.75;5040172;28;20204;-30
2020/12/20 10:23:20;;;;;;;7.63;6.93;;;;;;;13.47;100.00;100481.63;5040444;28;20264;-30
2020/12/20 10:26:08;;;;;;;7.93;7.17;;;;;;;13.02;100.00;100487.50;5040859;28;20217;-30
2020/12/20 10:28:55;;;;;;;7.87;7.07;;;;;;;12.31;100.00;100486.75;5040045;28;20303;-30
2020/12/20 10:31:42;;;;;;;8.20;7.43;;;;;;;12.96;100.00;100485.03;5040058;28;20217;-30
2020/12/20 10:34:28;;;;;;;7.90;7.20;;;;;;;12.76;100.00;100487.91;5040000;28;20252;-30
2020/12/20 10:37:15;;;;;;;7.80;7.10;;;;;;;13.14;100.00;100476.09;5039194;28;20511;-31
2020/12/20 10:40:03;;;;;;;7.97;6.90;;;;;;;12.90;100.00;100481.66;5039669;28;20287;-30
2020/12/20 10:42:49;;;;;;;7.77;6.97;;;;;;;12.99;100.00;100473.72;5039840;28;20228;-30
2020/12/20 10:45:35;;;;;;;7.10;6.40;;;;;;;12.27;100.00;100487.66;5039251;28;20200;-30
2020/12/20 10:48:22;;;;;;;7.07;6.37;;;;;;;12.72;100.00;100485.38;5039592;28;20196;-30
2020/12/20 10:51:10;;;;;;;7.73;7.03;;;;;;;12.84;100.00;100484.31;5039863;28;20275;-30
2020/12/20 10:53:56;;;;;;;7.50;6.70;;;;;;;12.67;100.00;100484.56;5039055;28;20262;-30
2020/12/20 10:56:42;;;;;;;7.40;6.70;;;;;;;12.47;100.00;100481.38;5040063;28;20201;-30
2020/12/20 10:59:30;;;;;;;7.90;6.70;;;;;;;12.86;100.00;100482.56;5041781;28;20583;-30
2020/12/20 11:02:16;;;;;;;11.63;6.47;;;;;;;13.98;100.00;100485.06;5040435;28;20658;-30
2020/12/20 11:05:05;;;;;;;7.03;6.33;;;;;;;13.40;100.00;100476.53;5041295;28;20205;-30
2020/12/20 11:07:53;;;;;;;7.40;6.70;;;;;;;13.06;100.00;100480.53;5040841;28;20549;-30
2020/12/20 11:10:40;;;;;;;7.70;6.80;;;;;;;12.92;100.00;100480.75;5040241;28;20202;-30
2020/12/20 11:13:26;;;;;;;7.73;6.60;;;;;;;14.14;100.00;100479.53;5040212;28;20639;-30
2020/12/20 11:16:17;;;;;;;6.87;6.27;;;;;;;14.57;100.00;100475.22;5041948;28;20202;-30
2020/12/20 11:19:03;;;;;;;6.23;5.27;;;;;;;13.61;100.00;100472.69;5040956;28;20252;-31
2020/12/20 11:21:50;;;;;;;7.17;6.47;;;;;;;12.42;100.00;100474.50;5040425;28;20240;-30
2020/12/20 11:24:39;;;;;;;7.33;6.23;;;;;;;12.83;100.00;100470.47;5040129;28;20205;-29
2020/12/20 11:27:27;;;;;;;6.30;5.60;;;;;;;12.56;100.00;100466.56;5041444;28;20245;-30
2020/12/20 11:30:14;;;;;;;9.00;6.37;;;;;;;12.54;100.00;100460.53;5041188;28;20491;-30
2020/12/20 11:33:00;;;;;;;6.73;5.10;;;;;;;12.11;100.00;100457.59;5041584;28;20205;-29
2020/12/20 11:35:47;;;;;;;6.93;5.40;;;;;;;12.56;100.00;100452.72;5041772;28;20248;-29
2020/12/20 11:38:35;;;;;;;6.50;5.87;;;;;;;12.20;100.00;100452.28;5040555;28;20647;-29
2020/12/20 11:41:22;;;;;;;8.17;6.17;;;;;;;12.03;100.00;100451.63;5039781;28;20281;-29
2020/12/20 11:44:08;;;;;;;7.70;6.23;;;;;;;12.28;100.00;100455.66;5040125;28;20209;-29
2020/12/20 11:47:08;;;;;;;10.50;6.10;;;;;;;12.29;100.00;100454.78;5039386;28;20205;-29
2020/12/20 11:49:58;;;;;;;7.37;5.80;;;;;;;12.57;100.00;100459.63;5040074;28;20603;-29
2020/12/20 11:52:44;;;;;;;7.77;5.80;;;;;;;12.07;100.00;100451.59;5039640;28;20259;-29
2020/12/20 11:55:31;;;;;;;6.53;5.13;;;;;;;12.31;100.00;100458.22;5039665;28;20332;-29
2020/12/20 11:58:19;;;;;;;8.77;6.53;;;;;;;12.34;100.00;100454.72;5039834;28;20221;-29
2020/12/20 12:01:06;;;;;;;9.00;5.73;;;;;;;12.28;100.00;100452.22;5039686;28;20225;-29
2020/12/20 12:03:52;;;;;;;6.73;5.23;;;;;;;12.21;100.00;100454.00;5040002;28;20197;-29
2020/12/20 12:06:41;;;;;;;8.27;5.60;;;;;;;12.37;100.00;100446.91;5040423;28;20220;-29
2020/12/20 12:09:27;;;;;;;6.87;5.27;;;;;;;12.24;100.00;100458.31;5038986;28;20202;-29
2020/12/20 12:12:14;;;;;;;9.67;5.20;;;;;;;11.96;100.00;100458.66;5039247;28;20255;-29
2020/12/20 12:15:00;;;;;;;6.57;5.30;;;;;;;11.98;100.00;100456.91;5037841;28;20610;-29
2020/12/20 12:17:46;;;;;;;9.50;5.93;;;;;;;12.13;100.00;100453.25;5039491;28;20201;-29
2020/12/20 12:20:36;;;;;;;6.27;4.53;;;;;;;12.37;100.00;100450.38;5039620;28;20480;-30
2020/12/20 12:23:22;;;;;;;6.90;5.37;;;;;;;12.12;100.00;100450.69;5039193;28;20233;-29
2020/12/20 12:26:10;;;;;;;8.80;4.40;;;;;;;11.91;100.00;100444.88;5039977;28;20618;-29
2020/12/20 12:28:58;;;;;;;7.40;4.50;;;;;;;11.88;100.00;100446.63;5039787;28;20200;-29
2020/12/20 12:31:43;;;;;;;7.93;5.27;;;;;;;12.16;100.00;100453.22;5040294;28;20198;-29
2020/12/20 12:34:31;;;;;;;7.63;4.73;;;;;;;12.22;100.00;100449.69;5021894;28;20217;-29
2020/12/20 12:37:19;;;;;;;9.90;4.53;;;;;;;11.81;100.00;100447.56;5039616;28;20602;-29
2020/12/20 12:40:07;;;;;;;13.33;4.90;;;;;;;11.97;100.00;100449.13;5039231;28;20209;-30
2020/12/20 12:42:54;;;;;;;7.27;4.00;;;;;;;12.00;100.00;100443.88;5037976;28;20507;-29
2020/12/20 12:45:40;;;;;;;7.43;4.43;;;;;;;12.00;100.00;100449.06;5041588;28;20238;-29
2020/12/20 12:48:26;;;;;;;5.70;4.53;;;;;;;12.06;100.00;100443.81;5041266;28;20205;-29
2020/12/20 12:51:20;;;;;;;8.90;4.20;;;;;;;12.07;100.00;100450.72;5039265;28;20202;-29